createdAt,value
2022-09-06T00:00:12.920Z,20.57
2022-09-06T00:00:44.352Z,20.53
2022-09-06T00:01:17.651Z,20.50
2022-09-06T00:01:49.217Z,20.46
2022-09-06T00:02:20.864Z,20.38
2022-09-06T00:02:52.306Z,20.32
2022-09-06T00:03:24.135Z,20.27
2022-09-06T00:04:15.533Z,20.29
2022-09-06T00:04:48.151Z,20.31
2022-09-06T00:05:19.960Z,20.32
2022-09-06T00:05:51.460Z,20.32
2022-09-06T00:06:22.918Z,20.32
2022-09-06T00:06:54.249Z,20.33
2022-09-06T00:07:25.693Z,20.35
2022-09-06T00:08:03.024Z,20.37
2022-09-06T00:08:34.362Z,20.37
2022-09-06T00:09:05.901Z,20.37
2022-09-06T00:09:37.352Z,20.34
2022-09-06T00:10:09.688Z,20.34
2022-09-06T00:10:42.784Z,20.31
2022-09-06T00:11:16.019Z,20.29
2022-09-06T00:11:47.333Z,20.26
2022-09-06T00:12:18.850Z,20.28
2022-09-06T00:12:50.197Z,20.28
2022-09-06T00:13:21.647Z,20.28
2022-09-06T00:13:53.003Z,20.26
2022-09-06T00:14:24.541Z,20.24
2022-09-06T00:14:56.408Z,20.20
2022-09-06T00:15:27.840Z,20.15
2022-09-06T00:16:15.063Z,20.16
2022-09-06T00:16:46.790Z,20.15
2022-09-06T00:17:18.524Z,20.15
2022-09-06T00:17:51.530Z,20.15
2022-09-06T00:18:41.980Z,20.12
2022-09-06T00:19:13.362Z,20.12
2022-09-06T00:19:44.741Z,20.11
2022-09-06T00:20:16.215Z,20.09
2022-09-06T00:20:47.798Z,20.11
2022-09-06T00:21:23.050Z,20.13
2022-09-06T00:21:54.399Z,20.13
2022-09-06T00:22:25.776Z,20.14
2022-09-06T00:23:03.216Z,20.18
2022-09-06T00:23:34.530Z,20.18
2022-09-06T00:24:06.034Z,20.19
2022-09-06T00:24:37.691Z,20.19
2022-09-06T00:25:09.638Z,20.20
2022-09-06T00:25:41.793Z,20.19
2022-09-06T00:26:14.191Z,20.19
2022-09-06T00:26:45.525Z,20.18
2022-09-06T00:27:35.448Z,20.20
2022-09-06T00:28:08.189Z,20.21
2022-09-06T00:28:39.871Z,20.22
2022-09-06T00:29:11.261Z,20.22
2022-09-06T00:29:42.759Z,20.21
2022-09-06T00:30:14.409Z,20.23
2022-09-06T00:30:45.873Z,20.24
2022-09-06T00:31:20.323Z,20.24
2022-09-06T00:31:51.772Z,20.22
2022-09-06T00:32:23.253Z,20.26
2022-09-06T00:32:55.321Z,20.26
2022-09-06T00:33:26.799Z,20.25
2022-09-06T00:33:58.159Z,20.28
2022-09-06T00:34:29.557Z,20.27
2022-09-06T00:35:00.892Z,20.27
2022-09-06T00:35:32.282Z,20.30
2022-09-06T00:36:04.268Z,20.30
2022-09-06T00:36:35.693Z,20.31
2022-09-06T00:37:07.048Z,20.31
2022-09-06T00:37:38.396Z,20.30
2022-09-06T00:38:09.733Z,20.34
2022-09-06T00:38:41.922Z,20.32
2022-09-06T00:39:13.291Z,20.33
2022-09-06T00:39:44.806Z,20.32
2022-09-06T00:40:16.681Z,20.34
2022-09-06T00:40:48.017Z,20.32
2022-09-06T00:41:19.416Z,20.28
2022-09-06T00:41:51.101Z,20.28
2022-09-06T00:42:22.674Z,20.25
2022-09-06T00:42:54.052Z,20.24
2022-09-06T00:43:25.500Z,20.24
2022-09-06T00:43:56.893Z,20.21
2022-09-06T00:44:28.352Z,20.20
2022-09-06T00:45:00.367Z,20.20
2022-09-06T00:45:32.408Z,20.20
2022-09-06T00:46:06.270Z,20.18
2022-09-06T00:46:41.909Z,20.17
2022-09-06T00:47:13.505Z,20.16
2022-09-06T00:47:45.437Z,20.17
2022-09-06T00:48:17.369Z,20.16
2022-09-06T00:49:46.307Z,20.17
2022-09-06T00:50:19.232Z,20.15
2022-09-06T00:50:59.211Z,20.16
2022-09-06T00:51:31.491Z,20.17
2022-09-06T00:52:27.052Z,20.17
2022-09-06T00:52:58.463Z,20.17
2022-09-06T00:53:31.852Z,20.16
2022-09-06T00:54:05.554Z,20.17
2022-09-06T00:54:37.712Z,20.17
2022-09-06T00:55:09.942Z,20.18
2022-09-06T00:56:32.995Z,20.18
2022-09-06T00:57:04.614Z,20.19
2022-09-06T00:58:26.885Z,20.20
2022-09-06T00:59:48.170Z,20.19
2022-09-06T01:00:20.754Z,20.20
2022-09-06T01:00:52.611Z,20.19
2022-09-06T01:01:24.035Z,20.18
2022-09-06T01:01:55.635Z,20.20
2022-09-06T01:02:27.196Z,20.19
2022-09-06T01:02:58.639Z,20.20
2022-09-06T01:03:30.009Z,20.19
2022-09-06T01:04:02.512Z,20.17
2022-09-06T01:04:34.320Z,20.19
2022-09-06T01:05:06.315Z,20.18
2022-09-06T01:05:57.092Z,20.18
2022-09-06T01:06:36.759Z,20.19
2022-09-06T01:07:25.199Z,20.18
2022-09-06T01:08:02.348Z,20.20
2022-09-06T01:09:15.719Z,20.19
2022-09-06T01:09:56.938Z,20.17
2022-09-06T01:10:37.983Z,20.18
2022-09-06T01:11:35.447Z,20.18
2022-09-06T01:12:29.443Z,20.17
2022-09-06T01:13:26.691Z,20.16
2022-09-06T01:14:25.244Z,20.16
2022-09-06T01:15:09.212Z,20.13
2022-09-06T01:16:25.716Z,20.13
2022-09-06T01:17:09.099Z,20.12
2022-09-06T01:18:29.375Z,20.10
2022-09-06T01:19:09.828Z,20.10
2022-09-06T01:20:01.256Z,20.08
2022-09-06T01:20:41.839Z,20.04
2022-09-06T01:22:43.612Z,20.04
2022-09-06T01:23:55.156Z,20.04
2022-09-06T01:24:50.250Z,20.03
2022-09-06T01:25:30.423Z,20.02
2022-09-06T01:26:20.344Z,20.04
2022-09-06T01:27:32.938Z,20.02
2022-09-06T01:28:31.660Z,20.00
2022-09-06T01:29:13.177Z,19.99
2022-09-06T01:30:10.177Z,19.96
2022-09-06T01:30:50.811Z,19.96
2022-09-06T01:31:35.263Z,19.96
2022-09-06T01:32:31.147Z,19.97
2022-09-06T01:33:51.607Z,19.97
2022-09-06T01:34:35.152Z,19.96
2022-09-06T01:35:29.923Z,19.97
2022-09-06T01:36:05.664Z,19.97
2022-09-06T01:37:08.289Z,19.97
2022-09-06T01:37:38.119Z,19.95
2022-09-06T01:38:10.522Z,19.93
2022-09-06T01:38:41.933Z,19.94
2022-09-06T01:39:24.042Z,19.90
2022-09-06T01:39:55.623Z,19.91
2022-09-06T01:40:28.378Z,19.91
2022-09-06T01:40:59.718Z,19.91
2022-09-06T01:41:32.382Z,19.91
2022-09-06T01:42:15.781Z,19.90
2022-09-06T01:42:49.147Z,19.91
2022-09-06T01:43:27.642Z,19.90
2022-09-06T01:43:59.595Z,19.91
2022-09-06T01:44:32.148Z,19.88
2022-09-06T01:46:33.292Z,19.87
2022-09-06T01:47:32.220Z,19.85
2022-09-06T01:48:24.115Z,19.85
2022-09-06T01:49:25.276Z,19.83
2022-09-06T01:50:34.891Z,19.82
2022-09-06T01:51:23.574Z,19.81
2022-09-06T01:52:13.227Z,19.80
2022-09-06T01:53:23.580Z,19.79
2022-09-06T01:54:03.748Z,19.78
2022-09-06T01:54:58.397Z,19.77
2022-09-06T01:57:00.896Z,19.75
2022-09-06T01:57:42.598Z,19.72
2022-09-06T01:58:29.964Z,19.73
2022-09-06T01:59:30.416Z,19.71
2022-09-06T02:00:14.760Z,19.69
2022-09-06T02:00:58.868Z,19.69
2022-09-06T02:02:13.473Z,19.71
2022-09-06T02:03:04.423Z,19.69
2022-09-06T02:04:46.959Z,19.66
2022-09-06T02:05:42.069Z,19.66
2022-09-06T02:06:20.175Z,19.64
2022-09-06T02:07:00.810Z,19.63
2022-09-06T02:07:35.037Z,19.64
2022-09-06T02:08:14.443Z,19.64
2022-09-06T02:08:48.927Z,19.64
2022-09-06T02:09:26.736Z,19.62
2022-09-06T02:10:27.577Z,19.56
2022-09-06T02:11:01.652Z,19.57
2022-09-06T02:11:54.556Z,19.57
2022-09-06T02:12:30.318Z,19.56
2022-09-06T02:13:05.068Z,19.55
2022-09-06T02:13:41.900Z,19.54
2022-09-06T02:14:26.222Z,19.53
2022-09-06T02:15:21.475Z,19.56
2022-09-06T02:15:58.436Z,19.54
2022-09-06T02:16:34.657Z,19.57
2022-09-06T02:17:11.760Z,19.58
2022-09-06T02:18:43.879Z,19.58
2022-09-06T02:19:23.096Z,19.59
2022-09-06T02:20:02.799Z,19.57
2022-09-06T02:20:39.822Z,19.57
2022-09-06T02:21:15.237Z,19.58
2022-09-06T02:21:47.844Z,19.57
2022-09-06T02:22:23.704Z,19.59
2022-09-06T02:22:59.397Z,19.57
2022-09-06T02:23:34.806Z,19.54
2022-09-06T02:24:11.900Z,19.52
2022-09-06T02:24:46.012Z,19.52
2022-09-06T02:25:25.164Z,19.52
2022-09-06T02:26:17.536Z,19.52
2022-09-06T02:26:49.772Z,19.50
2022-09-06T02:27:21.244Z,19.50
2022-09-06T02:27:54.082Z,19.51
2022-09-06T02:28:26.002Z,19.52
2022-09-06T02:28:57.886Z,19.52
2022-09-06T02:29:29.462Z,19.53
2022-09-06T02:30:02.973Z,19.51
2022-09-06T02:30:45.255Z,19.52
2022-09-06T02:31:38.850Z,19.54
2022-09-06T02:32:19.873Z,19.49
2022-09-06T02:33:00.693Z,19.45
2022-09-06T02:33:34.104Z,19.40
2022-09-06T02:34:06.607Z,19.38
2022-09-06T02:34:40.000Z,19.35
2022-09-06T02:35:14.788Z,19.32
2022-09-06T02:35:52.293Z,19.30
2022-09-06T02:36:42.663Z,19.29
2022-09-06T02:37:16.081Z,19.25
2022-09-06T02:37:47.466Z,19.22
2022-09-06T02:38:22.351Z,19.21
2022-09-06T02:38:54.828Z,19.17
2022-09-06T02:39:26.214Z,19.16
2022-09-06T02:39:57.796Z,19.17
2022-09-06T02:40:29.240Z,19.11
2022-09-06T02:41:01.151Z,19.10
2022-09-06T02:41:33.803Z,19.09
2022-09-06T02:42:06.555Z,19.11
2022-09-06T02:42:39.163Z,19.09
2022-09-06T02:43:10.475Z,19.08
2022-09-06T02:43:43.433Z,19.09
2022-09-06T02:44:15.245Z,19.09
2022-09-06T02:44:46.582Z,19.12
2022-09-06T02:45:17.930Z,19.08
2022-09-06T02:45:49.467Z,19.09
2022-09-06T02:46:21.107Z,19.10
2022-09-06T02:46:56.841Z,19.10
2022-09-06T02:47:28.545Z,19.11
2022-09-06T02:47:59.961Z,19.09
2022-09-06T02:48:50.041Z,19.12
2022-09-06T02:50:10.516Z,19.09
2022-09-06T02:50:41.846Z,19.12
2022-09-06T02:51:13.224Z,19.12
2022-09-06T02:51:44.617Z,19.12
2022-09-06T02:52:15.945Z,19.15
2022-09-06T02:53:00.159Z,19.15
2022-09-06T02:53:32.054Z,19.16
2022-09-06T02:54:03.547Z,19.18
2022-09-06T02:54:34.908Z,19.16
2022-09-06T02:55:07.104Z,19.17
2022-09-06T02:55:39.268Z,19.17
2022-09-06T02:56:10.862Z,19.16
2022-09-06T02:56:42.351Z,19.17
2022-09-06T02:57:14.109Z,19.16
2022-09-06T02:57:45.573Z,19.18
2022-09-06T02:58:17.122Z,19.20
2022-09-06T02:58:49.817Z,19.20
2022-09-06T02:59:21.299Z,19.20
2022-09-06T02:59:52.630Z,19.19
2022-09-06T03:00:25.033Z,19.20
2022-09-06T03:00:56.481Z,19.19
2022-09-06T03:01:27.977Z,19.19
2022-09-06T03:02:00.144Z,19.22
2022-09-06T03:02:31.824Z,19.21
2022-09-06T03:03:03.918Z,19.22
2022-09-06T03:03:35.584Z,19.20
2022-09-06T03:04:06.952Z,19.23
2022-09-06T03:04:38.425Z,19.20
2022-09-06T03:05:09.834Z,19.23
2022-09-06T03:05:41.313Z,19.21
2022-09-06T03:06:12.681Z,19.20
2022-09-06T03:07:02.717Z,19.21
2022-09-06T03:07:34.066Z,19.20
2022-09-06T03:08:06.013Z,19.19
2022-09-06T03:08:38.090Z,19.18
2022-09-06T03:09:10.372Z,19.19
2022-09-06T03:09:41.725Z,19.16
2022-09-06T03:10:13.078Z,19.18
2022-09-06T03:10:56.197Z,19.17
2022-09-06T03:11:28.201Z,19.19
2022-09-06T03:12:17.963Z,19.18
2022-09-06T03:12:49.303Z,19.17
2022-09-06T03:14:10.199Z,19.15
2022-09-06T03:15:19.030Z,19.15
2022-09-06T03:15:55.967Z,19.14
2022-09-06T03:16:27.357Z,19.13
2022-09-06T03:16:58.741Z,19.12
2022-09-06T03:17:30.131Z,19.11
2022-09-06T03:18:02.278Z,19.12
2022-09-06T03:18:33.665Z,19.12
2022-09-06T03:19:05.072Z,19.09
2022-09-06T03:19:36.410Z,19.11
2022-09-06T03:20:09.706Z,19.11
2022-09-06T03:20:41.066Z,19.10
2022-09-06T03:21:12.505Z,19.10
2022-09-06T03:21:43.850Z,19.12
2022-09-06T03:22:15.315Z,19.12
2022-09-06T03:22:46.720Z,19.11
2022-09-06T03:23:19.267Z,19.13
2022-09-06T03:23:50.921Z,19.12
2022-09-06T03:24:22.266Z,19.11
2022-09-06T03:24:53.711Z,19.09
2022-09-06T03:25:26.113Z,19.08
2022-09-06T03:25:57.667Z,19.10
2022-09-06T03:27:19.472Z,19.11
2022-09-06T03:27:51.153Z,19.12
2022-09-06T03:28:23.594Z,19.12
2022-09-06T03:28:54.987Z,19.12
2022-09-06T03:29:26.361Z,19.12
2022-09-06T03:29:57.988Z,19.12
2022-09-06T03:30:29.576Z,19.12
2022-09-06T03:31:01.017Z,19.14
2022-09-06T03:31:32.464Z,19.14
2022-09-06T03:32:03.919Z,19.14
2022-09-06T03:32:35.343Z,19.14
2022-09-06T03:33:07.421Z,19.12
2022-09-06T03:33:38.849Z,19.13
2022-09-06T03:34:11.292Z,19.13
2022-09-06T03:35:01.269Z,19.13
2022-09-06T03:35:33.155Z,19.12
2022-09-06T03:36:04.904Z,19.10
2022-09-06T03:36:36.236Z,19.10
2022-09-06T03:37:07.607Z,19.11
2022-09-06T03:37:38.981Z,19.10
2022-09-06T03:38:10.331Z,19.10
2022-09-06T03:38:41.749Z,19.08
2022-09-06T03:39:13.178Z,19.08
2022-09-06T03:39:44.616Z,19.06
2022-09-06T03:40:16.156Z,19.08
2022-09-06T03:40:48.934Z,19.08
2022-09-06T03:41:20.501Z,19.08
2022-09-06T03:41:51.945Z,19.07
2022-09-06T03:42:26.006Z,19.06
2022-09-06T03:42:57.438Z,19.08
2022-09-06T03:43:29.242Z,19.05
2022-09-06T03:44:00.831Z,19.07
2022-09-06T03:44:32.293Z,19.06
2022-09-06T03:45:04.098Z,19.03
2022-09-06T03:45:35.469Z,19.04
2022-09-06T03:46:07.018Z,19.05
2022-09-06T03:46:38.494Z,19.02
2022-09-06T03:47:09.884Z,19.03
2022-09-06T03:47:59.729Z,19.02
2022-09-06T03:48:31.278Z,19.00
2022-09-06T03:49:02.674Z,18.99
2022-09-06T03:49:34.023Z,18.98
2022-09-06T03:50:07.196Z,18.95
2022-09-06T03:50:38.538Z,18.95
2022-09-06T03:51:09.885Z,18.93
2022-09-06T03:52:29.935Z,18.96
2022-09-06T03:53:01.270Z,18.96
2022-09-06T03:53:32.640Z,18.95
2022-09-06T03:54:04.123Z,18.94
2022-09-06T03:54:36.028Z,18.93
2022-09-06T03:55:07.798Z,18.88
2022-09-06T03:55:39.649Z,18.92
2022-09-06T03:57:00.097Z,18.88
2022-09-06T03:57:31.505Z,18.86
2022-09-06T03:58:21.569Z,18.84
2022-09-06T03:59:41.905Z,18.84
2022-09-06T04:01:08.548Z,18.83
2022-09-06T04:01:40.198Z,18.82
2022-09-06T04:02:11.781Z,18.82
2022-09-06T04:02:43.201Z,18.81
2022-09-06T04:03:15.237Z,18.82
2022-09-06T04:03:46.748Z,18.81
2022-09-06T04:04:18.314Z,18.80
2022-09-06T04:04:49.718Z,18.78
2022-09-06T04:05:21.089Z,18.75
2022-09-06T04:05:52.486Z,18.77
2022-09-06T04:06:23.961Z,18.75
2022-09-06T04:06:55.348Z,18.77
2022-09-06T04:07:26.739Z,18.75
2022-09-06T04:07:58.115Z,18.72
2022-09-06T04:08:29.786Z,18.76
2022-09-06T04:09:01.413Z,18.75
2022-09-06T04:09:32.927Z,18.75
2022-09-06T04:10:04.687Z,18.75
2022-09-06T04:10:55.260Z,18.75
2022-09-06T04:11:26.779Z,18.73
2022-09-06T04:11:58.264Z,18.73
2022-09-06T04:12:48.203Z,18.73
2022-09-06T04:13:19.572Z,18.72
2022-09-06T04:13:50.979Z,18.72
2022-09-06T04:14:22.690Z,18.72
2022-09-06T04:14:54.064Z,18.72
2022-09-06T04:15:25.392Z,18.72
2022-09-06T04:15:57.271Z,18.72
2022-09-06T04:16:28.648Z,18.72
2022-09-06T04:17:00.125Z,18.71
2022-09-06T04:17:31.550Z,18.69
2022-09-06T04:18:07.209Z,18.68
2022-09-06T04:18:40.681Z,18.69
2022-09-06T04:19:12.148Z,18.66
2022-09-06T04:19:43.477Z,18.64
2022-09-06T04:20:15.812Z,18.63
2022-09-06T04:20:52.271Z,18.63
2022-09-06T04:21:23.606Z,18.64
2022-09-06T04:21:55.226Z,18.63
2022-09-06T04:22:26.617Z,18.64
2022-09-06T04:22:57.950Z,18.65
2022-09-06T04:23:30.301Z,18.64
2022-09-06T04:24:01.847Z,18.66
2022-09-06T04:24:33.181Z,18.68
2022-09-06T04:26:13.076Z,18.69
2022-09-06T04:26:44.427Z,18.69
2022-09-06T04:27:15.751Z,18.68
2022-09-06T04:27:47.283Z,18.66
2022-09-06T04:28:19.217Z,18.67
2022-09-06T04:28:50.553Z,18.67
2022-09-06T04:29:21.912Z,18.67
2022-09-06T04:29:53.330Z,18.66
2022-09-06T04:30:24.875Z,18.69
2022-09-06T04:31:04.585Z,18.67
2022-09-06T04:31:54.945Z,18.67
2022-09-06T04:32:26.571Z,18.66
2022-09-06T04:32:57.931Z,18.65
2022-09-06T04:33:30.636Z,18.64
2022-09-06T04:34:50.957Z,18.64
2022-09-06T04:35:22.564Z,18.62
2022-09-06T04:35:56.447Z,18.62
2022-09-06T04:36:28.031Z,18.60
2022-09-06T04:36:59.404Z,18.61
2022-09-06T04:37:30.756Z,18.60
2022-09-06T04:38:03.863Z,18.62
2022-09-06T04:38:41.918Z,18.62
2022-09-06T04:39:32.628Z,18.63
2022-09-06T04:40:04.594Z,18.62
2022-09-06T04:40:35.963Z,18.60
2022-09-06T04:41:09.684Z,18.60
2022-09-06T04:41:41.073Z,18.61
2022-09-06T04:42:12.740Z,18.63
2022-09-06T04:42:44.078Z,18.59
2022-09-06T04:43:15.883Z,18.61
2022-09-06T04:44:06.104Z,18.62
2022-09-06T04:44:37.449Z,18.62
2022-09-06T04:45:09.379Z,18.63
2022-09-06T04:45:41.457Z,18.60
2022-09-06T04:46:20.939Z,18.60
2022-09-06T04:47:07.515Z,18.56
2022-09-06T04:47:40.763Z,18.54
2022-09-06T04:48:12.298Z,18.55
2022-09-06T04:48:43.849Z,18.55
2022-09-06T04:49:15.433Z,18.52
2022-09-06T04:49:49.358Z,18.56
2022-09-06T04:50:20.761Z,18.55
2022-09-06T04:50:52.143Z,18.55
2022-09-06T04:51:24.864Z,18.53
2022-09-06T04:52:14.763Z,18.50
2022-09-06T04:52:46.089Z,18.51
2022-09-06T04:53:35.818Z,18.49
2022-09-06T04:54:07.217Z,18.47
2022-09-06T04:54:38.655Z,18.47
2022-09-06T04:55:10.020Z,18.47
2022-09-06T04:55:41.375Z,18.46
2022-09-06T04:56:22.223Z,18.47
2022-09-06T04:56:53.571Z,18.45
2022-09-06T04:57:47.499Z,18.49
2022-09-06T04:58:20.942Z,18.47
2022-09-06T04:58:54.135Z,18.48
2022-09-06T04:59:25.503Z,18.49
2022-09-06T04:59:56.860Z,18.46
2022-09-06T05:00:47.459Z,18.50
2022-09-06T05:01:19.145Z,18.48
2022-09-06T05:01:50.649Z,18.48
2022-09-06T05:02:22.044Z,18.49
2022-09-06T05:02:53.471Z,18.51
2022-09-06T05:03:24.866Z,18.51
2022-09-06T05:03:57.046Z,18.52
2022-09-06T05:04:28.743Z,18.53
2022-09-06T05:05:00.087Z,18.52
2022-09-06T05:05:31.435Z,18.52
2022-09-06T05:06:06.966Z,18.51
2022-09-06T05:06:39.968Z,18.52
2022-09-06T05:07:11.373Z,18.52
2022-09-06T05:07:42.753Z,18.52
2022-09-06T05:08:14.941Z,18.53
2022-09-06T05:08:46.728Z,18.52
2022-09-06T05:09:18.212Z,18.51
2022-09-06T05:09:49.709Z,18.54
2022-09-06T05:10:22.608Z,18.54
2022-09-06T05:10:53.962Z,18.52
2022-09-06T05:12:02.427Z,18.54
2022-09-06T05:12:33.736Z,18.54
2022-09-06T05:13:05.076Z,18.53
2022-09-06T05:13:37.024Z,18.54
2022-09-06T05:14:08.360Z,18.53
2022-09-06T05:14:39.722Z,18.55
2022-09-06T05:15:11.300Z,18.55
2022-09-06T05:15:42.634Z,18.53
2022-09-06T05:16:14.381Z,18.54
2022-09-06T05:16:46.592Z,18.55
2022-09-06T05:17:18.068Z,18.56
2022-09-06T05:18:10.073Z,18.56
2022-09-06T05:18:44.188Z,18.55
2022-09-06T05:19:16.675Z,18.54
2022-09-06T05:20:06.610Z,18.54
2022-09-06T05:20:37.975Z,18.53
2022-09-06T05:21:09.527Z,18.52
2022-09-06T05:21:41.023Z,18.52
2022-09-06T05:22:12.440Z,18.50
2022-09-06T05:22:43.894Z,18.50
2022-09-06T05:23:15.236Z,18.49
2022-09-06T05:23:46.593Z,18.48
2022-09-06T05:24:18.021Z,18.46
2022-09-06T05:24:49.405Z,18.49
2022-09-06T05:25:21.072Z,18.48
2022-09-06T05:25:53.013Z,18.48
2022-09-06T05:26:24.419Z,18.45
2022-09-06T05:26:55.760Z,18.46
2022-09-06T05:27:27.094Z,18.46
2022-09-06T05:27:58.473Z,18.42
2022-09-06T05:28:29.947Z,18.42
2022-09-06T05:29:01.349Z,18.41
2022-09-06T05:29:33.027Z,18.43
2022-09-06T05:30:04.791Z,18.43
2022-09-06T05:30:36.194Z,18.41
2022-09-06T05:31:10.340Z,18.42
2022-09-06T05:31:41.786Z,18.42
2022-09-06T05:32:13.326Z,18.42
2022-09-06T05:32:44.772Z,18.42
2022-09-06T05:33:21.363Z,18.42
2022-09-06T05:33:54.115Z,18.42
2022-09-06T05:34:25.674Z,18.42
2022-09-06T05:34:57.046Z,18.39
2022-09-06T05:35:28.385Z,18.41
2022-09-06T05:35:59.888Z,18.41
2022-09-06T05:36:31.641Z,18.40
2022-09-06T05:37:21.723Z,18.40
2022-09-06T05:37:53.181Z,18.38
2022-09-06T05:38:28.123Z,18.40
2022-09-06T05:39:01.020Z,18.39
2022-09-06T05:39:32.355Z,18.39
2022-09-06T05:40:03.940Z,18.40
2022-09-06T05:40:35.435Z,18.41
2022-09-06T05:41:06.765Z,18.40
2022-09-06T05:41:38.224Z,18.40
2022-09-06T05:42:09.564Z,18.40
2022-09-06T05:42:41.108Z,18.38
2022-09-06T05:43:31.732Z,18.38
2022-09-06T05:44:03.724Z,18.41
2022-09-06T05:44:36.856Z,18.40
2022-09-06T05:45:27.198Z,18.40
2022-09-06T05:45:59.023Z,18.39
2022-09-06T05:46:30.488Z,18.41
2022-09-06T05:47:02.053Z,18.39
2022-09-06T05:47:35.337Z,18.39
2022-09-06T05:48:06.671Z,18.39
2022-09-06T05:48:38.465Z,18.40
2022-09-06T05:49:10.417Z,18.40
2022-09-06T05:49:41.758Z,18.38
2022-09-06T05:50:13.442Z,18.39
2022-09-06T05:50:44.803Z,18.39
2022-09-06T05:51:16.251Z,18.38
2022-09-06T05:52:25.665Z,18.42
2022-09-06T05:52:57.192Z,18.40
2022-09-06T05:53:37.431Z,18.40
2022-09-06T05:54:11.087Z,18.39
2022-09-06T05:54:42.432Z,18.38
2022-09-06T05:55:13.768Z,18.36
2022-09-06T05:55:45.915Z,18.39
2022-09-06T05:56:17.744Z,18.39
2022-09-06T05:56:49.547Z,18.39
2022-09-06T05:57:21.027Z,18.37
2022-09-06T05:57:52.401Z,18.35
2022-09-06T05:58:23.826Z,18.36
2022-09-06T05:58:55.396Z,18.37
2022-09-06T05:59:26.905Z,18.37
2022-09-06T05:59:58.464Z,18.37
2022-09-06T06:00:29.979Z,18.36
2022-09-06T06:01:06.337Z,18.37
2022-09-06T06:01:46.804Z,18.34
2022-09-06T06:02:18.283Z,18.32
2022-09-06T06:02:49.967Z,18.29
2022-09-06T06:03:21.603Z,18.26
2022-09-06T06:03:55.196Z,18.29
2022-09-06T06:04:26.615Z,18.28
2022-09-06T06:04:58.773Z,18.29
2022-09-06T06:05:30.180Z,18.29
2022-09-06T06:06:01.535Z,18.30
2022-09-06T06:06:34.424Z,18.29
2022-09-06T06:07:55.573Z,18.28
2022-09-06T06:08:27.211Z,18.31
2022-09-06T06:08:59.528Z,18.32
2022-09-06T06:09:30.855Z,18.33
2022-09-06T06:10:02.244Z,18.33
2022-09-06T06:10:38.512Z,18.34
2022-09-06T06:11:29.519Z,18.36
2022-09-06T06:12:00.842Z,18.35
2022-09-06T06:12:51.080Z,18.36
2022-09-06T06:13:22.404Z,18.35
2022-09-06T06:13:54.628Z,18.36
2022-09-06T06:14:44.433Z,18.37
2022-09-06T06:15:15.880Z,18.37
2022-09-06T06:15:47.461Z,18.36
2022-09-06T06:16:38.591Z,18.35
2022-09-06T06:17:10.016Z,18.36
2022-09-06T06:17:41.387Z,18.35
2022-09-06T06:18:12.723Z,18.36
2022-09-06T06:18:47.632Z,18.37
2022-09-06T06:19:40.418Z,18.33
2022-09-06T06:20:11.797Z,18.31
2022-09-06T06:20:52.134Z,18.30
2022-09-06T06:21:26.137Z,18.28
2022-09-06T06:21:58.320Z,18.29
2022-09-06T06:22:48.273Z,18.30
2022-09-06T06:23:19.621Z,18.31
2022-09-06T06:24:08.621Z,18.29
2022-09-06T06:24:39.931Z,18.28
2022-09-06T06:25:30.868Z,18.30
2022-09-06T06:26:02.246Z,18.30
2022-09-06T06:26:35.903Z,18.30
2022-09-06T06:27:07.220Z,18.26
2022-09-06T06:27:38.673Z,18.25
2022-09-06T06:28:09.995Z,18.24
2022-09-06T06:28:41.416Z,18.25
2022-09-06T06:29:12.758Z,18.24
2022-09-06T06:30:02.598Z,18.25
2022-09-06T06:30:54.243Z,18.27
2022-09-06T06:31:25.618Z,18.28
2022-09-06T06:31:57.048Z,18.28
2022-09-06T06:32:28.535Z,18.30
2022-09-06T06:33:00.413Z,18.29
2022-09-06T06:33:32.474Z,18.29
2022-09-06T06:34:04.085Z,18.30
2022-09-06T06:34:35.395Z,18.31
2022-09-06T06:35:07.024Z,18.31
2022-09-06T06:35:40.111Z,18.32
2022-09-06T06:36:14.392Z,18.36
2022-09-06T06:36:45.695Z,18.38
2022-09-06T06:37:17.024Z,18.40
2022-09-06T06:37:48.342Z,18.42
2022-09-06T06:38:19.661Z,18.41
2022-09-06T06:38:55.317Z,18.41
2022-09-06T06:39:26.723Z,18.42
2022-09-06T06:39:58.873Z,18.43
2022-09-06T06:40:30.926Z,18.45
2022-09-06T06:41:20.891Z,18.44
2022-09-06T06:41:52.907Z,18.39
2022-09-06T06:42:24.266Z,18.36
2022-09-06T06:42:55.692Z,18.35
2022-09-06T06:43:28.255Z,18.36
2022-09-06T06:44:53.263Z,18.38
2022-09-06T06:45:24.676Z,18.38
2022-09-06T06:45:56.144Z,18.40
2022-09-06T06:46:35.648Z,18.41
2022-09-06T06:47:07.093Z,18.41
2022-09-06T06:47:38.406Z,18.41
2022-09-06T06:48:09.718Z,18.44
2022-09-06T06:48:59.963Z,18.45
2022-09-06T06:49:31.335Z,18.46
2022-09-06T06:50:02.666Z,18.46
2022-09-06T06:50:34.035Z,18.48
2022-09-06T06:51:24.011Z,18.49
2022-09-06T06:51:55.334Z,18.51
2022-09-06T06:52:26.695Z,18.54
2022-09-06T06:53:47.928Z,18.55
2022-09-06T06:55:08.909Z,18.56
2022-09-06T06:55:46.588Z,18.57
2022-09-06T06:56:35.163Z,18.57
2022-09-06T06:57:06.819Z,18.56
2022-09-06T06:57:38.173Z,18.56
2022-09-06T06:58:09.491Z,18.56
2022-09-06T06:58:41.187Z,18.54
2022-09-06T06:59:14.399Z,18.54
2022-09-06T06:59:45.823Z,18.54
2022-09-06T07:00:17.323Z,18.55
2022-09-06T07:00:48.714Z,18.55
2022-09-06T07:01:22.023Z,18.56
2022-09-06T07:01:53.646Z,18.57
2022-09-06T07:02:25.156Z,18.59
2022-09-06T07:02:57.071Z,18.61
2022-09-06T07:03:28.386Z,18.65
2022-09-06T07:03:59.911Z,18.66
2022-09-06T07:04:31.250Z,18.66
2022-09-06T07:08:05.424Z,18.70
2022-09-06T07:08:39.708Z,18.72
2022-09-06T07:09:11.022Z,18.72
2022-09-06T07:10:34.479Z,18.79
2022-09-06T07:11:07.419Z,18.81
2022-09-06T07:11:57.023Z,18.81
2022-09-06T07:12:28.344Z,18.82
2022-09-06T07:12:59.873Z,18.83
2022-09-06T07:13:31.813Z,18.82
2022-09-06T07:14:03.139Z,18.84
2022-09-06T07:14:34.455Z,18.87
2022-09-06T07:15:06.157Z,18.89
2022-09-06T07:15:37.484Z,18.91
2022-09-06T07:16:10.536Z,18.93
2022-09-06T07:16:42.562Z,18.95
2022-09-06T07:18:02.554Z,19.01
2022-09-06T07:18:52.538Z,19.00
2022-09-06T07:20:16.242Z,19.04
2022-09-06T07:21:39.375Z,19.08
2022-09-06T07:22:13.630Z,19.11
2022-09-06T07:22:45.208Z,19.13
2022-09-06T07:24:09.170Z,19.18
2022-09-06T07:24:41.147Z,19.18
2022-09-06T07:25:20.378Z,19.19
2022-09-06T07:26:11.141Z,19.21
2022-09-06T07:28:05.738Z,19.24
2022-09-06T07:28:37.240Z,19.25
2022-09-06T07:29:08.810Z,19.26
2022-09-06T07:29:40.116Z,19.27
2022-09-06T07:30:11.889Z,19.31
2022-09-06T07:30:43.216Z,19.33
2022-09-06T07:32:13.208Z,19.40
2022-09-06T07:32:44.604Z,19.42
2022-09-06T07:33:34.377Z,19.44
2022-09-06T07:34:05.750Z,19.47
2022-09-06T07:34:39.471Z,19.49
2022-09-06T07:35:13.723Z,19.52
2022-09-06T07:35:55.328Z,19.52
2022-09-06T07:36:26.830Z,19.53
2022-09-06T07:36:58.227Z,19.52
2022-09-06T07:37:29.532Z,19.53
2022-09-06T07:38:01.862Z,19.53
2022-09-06T07:38:34.287Z,19.52
2022-09-06T07:39:05.676Z,19.56
2022-09-06T07:39:37.115Z,19.57
2022-09-06T07:40:09.681Z,19.58
2022-09-06T07:40:41.118Z,19.61
2022-09-06T07:41:12.439Z,19.62
2022-09-06T07:42:02.292Z,19.63
2022-09-06T07:42:36.424Z,19.64
2022-09-06T07:43:08.054Z,19.64
2022-09-06T07:43:39.430Z,19.66
2022-09-06T07:44:10.746Z,19.66
2022-09-06T07:44:42.074Z,19.69
2022-09-06T07:45:13.402Z,19.70
2022-09-06T07:46:33.766Z,19.73
2022-09-06T07:47:59.670Z,19.76
2022-09-06T07:48:33.358Z,19.76
2022-09-06T07:49:05.769Z,19.76
2022-09-06T07:49:37.202Z,19.79
2022-09-06T07:51:21.053Z,19.83
2022-09-06T07:51:52.368Z,19.85
2022-09-06T07:53:24.780Z,19.91
2022-09-06T07:54:26.141Z,19.95
2022-09-06T07:54:53.843Z,19.98
2022-09-06T07:55:25.999Z,20.01
2022-09-06T07:57:05.062Z,20.04
2022-09-06T07:57:36.399Z,20.06
2022-09-06T07:58:07.722Z,20.07
2022-09-06T07:58:40.308Z,20.09
2022-09-06T07:59:11.635Z,20.10
2022-09-06T07:59:43.105Z,20.12
2022-09-06T08:00:14.615Z,20.12
2022-09-06T08:00:46.025Z,20.14
2022-09-06T08:01:37.323Z,20.17
2022-09-06T08:02:08.682Z,20.19
2022-09-06T08:02:40.828Z,20.19
2022-09-06T08:03:12.940Z,20.21
2022-09-06T08:03:44.981Z,20.23
2022-09-06T08:04:16.296Z,20.24
2022-09-06T08:04:51.447Z,20.26
2022-09-06T08:07:40.125Z,20.29
2022-09-06T08:09:06.313Z,20.35
2022-09-06T08:09:37.670Z,20.37
2022-09-06T08:10:09.220Z,20.38
2022-09-06T08:10:40.644Z,20.40
2022-09-06T08:11:11.968Z,20.40
2022-09-06T08:11:43.450Z,20.43